createdAt,value
2019-04-21T00:05:00.798Z,14.5
2019-04-21T00:10:06.353Z,14.5
2019-04-21T00:15:00.695Z,14.4
2019-04-21T00:19:47.672Z,14.4
2019-04-21T00:25:01.047Z,14.3
2019-04-21T00:30:04.514Z,14.3
2019-04-21T00:34:51.009Z,14.3
2019-04-21T00:45:01.840Z,14.1
2019-04-21T00:50:00.800Z,14.1
2019-04-21T00:55:10.570Z,14
2019-04-21T01:00:10.173Z,13.9
2019-04-21T01:05:04.833Z,13.8
2019-04-21T01:09:58.740Z,13.6
2019-04-21T01:15:16.409Z,13.6
2019-04-21T01:24:53.609Z,13.2
2019-04-21T01:30:08.245Z,13.3
2019-04-21T01:40:14.343Z,13.1
2019-04-21T01:45:05.522Z,12.9
2019-04-21T01:49:54.613Z,12.7
2019-04-21T01:55:06.238Z,12.6
2019-04-21T01:59:57.081Z,12.4
2019-04-21T02:05:13.751Z,12.5
2019-04-21T02:10:12.381Z,12.5
2019-04-21T02:15:04.859Z,12.4
2019-04-21T02:20:01.709Z,12.1
2019-04-21T02:25:10.814Z,12
2019-04-21T02:30:12.531Z,12
2019-04-21T02:35:24.253Z,12
2019-04-21T02:40:04.278Z,12.2
2019-04-21T02:50:21.253Z,12.5
2019-04-21T02:55:17.464Z,12.2
2019-04-21T03:05:24.989Z,11.7
2019-04-21T03:10:17.773Z,11.7
2019-04-21T03:15:25.510Z,11.9
2019-04-21T03:20:17.411Z,11.7
2019-04-21T03:25:28.322Z,11.5
2019-04-21T03:30:26.027Z,11.4
2019-04-21T03:40:16.733Z,11.5
2019-04-21T03:50:20.489Z,11.2
2019-04-21T04:05:24.315Z,10.9
2019-04-21T04:10:11.786Z,11
2019-04-21T04:15:18.658Z,10.8
2019-04-21T04:20:26.209Z,10.7
2019-04-21T04:40:21.514Z,10.8
2019-04-21T04:45:25.893Z,10.7
2019-04-21T04:50:15.573Z,10.6
2019-04-21T04:55:06.506Z,10.4
2019-04-21T05:00:15.337Z,10.4
2019-04-21T05:05:22.324Z,10.5
2019-04-21T05:15:11.471Z,10.3
2019-04-21T05:20:24.921Z,10.4
2019-04-21T05:25:02.478Z,10.1
2019-04-21T05:30:07.266Z,10.2
2019-04-21T05:35:07.624Z,10.2
2019-04-21T05:40:00.628Z,10.5
2019-04-21T05:45:02.956Z,10.4
2019-04-21T05:50:02.927Z,10.7
2019-04-21T05:55:10.964Z,10.5
2019-04-21T06:00:08.783Z,10.4
2019-04-21T06:05:23.212Z,10.7
2019-04-21T06:10:10.740Z,10.9
2019-04-21T06:15:07.951Z,11
2019-04-21T06:20:10.360Z,11.1
2019-04-21T06:25:33.845Z,11.1
2019-04-21T06:30:06.583Z,11.1
2019-04-21T06:35:24.202Z,11.5
2019-04-21T06:45:09.856Z,11.8
2019-04-21T06:50:07.622Z,12.1
2019-04-21T06:55:12.512Z,12.6
2019-04-21T06:59:59.950Z,13
2019-04-21T07:05:07.812Z,13
2019-04-21T07:10:12.361Z,13
2019-04-21T07:15:06.716Z,13
2019-04-21T07:25:12.372Z,14.6
2019-04-21T07:35:09.653Z,15
2019-04-21T07:40:01.710Z,15.4
2019-04-21T07:44:57.650Z,15.5
2019-04-21T07:49:57.400Z,16
2019-04-21T08:00:16.120Z,16.5
2019-04-21T08:10:02.870Z,16.8
2019-04-21T08:15:15.766Z,17.1
2019-04-21T08:20:00.839Z,17.3
2019-04-21T08:25:05.733Z,17.8
2019-04-21T08:30:08.392Z,18
2019-04-21T08:40:12.363Z,18.3
2019-04-21T08:45:10.742Z,18.5
2019-04-21T08:50:00.783Z,18.5
2019-04-21T08:55:03.703Z,18.5
2019-04-21T09:00:05.353Z,18.5
2019-04-21T09:05:04.694Z,19.6
2019-04-21T09:10:04.206Z,19.8
2019-04-21T09:15:00.825Z,20.1
2019-04-21T09:20:13.783Z,20.4
2019-04-21T09:29:53.499Z,20.7
2019-04-21T09:34:48.928Z,21
2019-04-21T09:39:49.854Z,21.1
2019-04-21T09:44:47.778Z,21.1
2019-04-21T09:49:45.548Z,21.3
2019-04-21T09:54:55.210Z,21.6
2019-04-21T09:59:55.752Z,22
2019-04-21T10:04:46.217Z,22
2019-04-21T10:09:45.861Z,21.8
2019-04-21T10:14:45.644Z,22.2
2019-04-21T10:19:46.360Z,22.1
2019-04-21T10:24:46.724Z,22.2
2019-04-21T10:29:46.887Z,22.5
2019-04-21T10:34:45.715Z,22.5
2019-04-21T10:39:45.841Z,22.6
2019-04-21T10:44:47.112Z,22.6
2019-04-21T10:49:46.606Z,22.7
2019-04-21T10:55:10.106Z,23
2019-04-21T10:59:47.959Z,23.2
2019-04-21T11:04:46.952Z,23.1
2019-04-21T11:09:46.370Z,22.9
2019-04-21T11:14:47.145Z,23
2019-04-21T11:19:46.522Z,23.2
2019-04-21T11:24:46.925Z,23.6
2019-04-21T11:29:45.403Z,24.1
2019-04-21T11:34:45.511Z,23.7
2019-04-21T11:39:50.138Z,23.8
2019-04-21T11:44:45.528Z,23.6
2019-04-21T11:49:47.208Z,23.7
2019-04-21T11:54:46.825Z,24.1
2019-04-21T11:59:45.907Z,24.2
2019-04-21T12:04:45.500Z,24.4
2019-04-21T12:09:45.803Z,25.1
2019-04-21T12:14:45.968Z,25.1
2019-04-21T12:19:46.146Z,24.7
2019-04-21T12:24:47.009Z,24.5
2019-04-21T12:29:46.085Z,24.8
2019-04-21T12:34:46.581Z,25.1
2019-04-21T12:39:45.503Z,24.7
2019-04-21T12:44:45.479Z,24.8
2019-04-21T12:49:45.681Z,25.1
2019-04-21T12:54:45.877Z,24.5
2019-04-21T12:59:46.688Z,24.8
2019-04-21T13:04:46.132Z,25.4
2019-04-21T13:09:46.303Z,25.9
2019-04-21T13:14:45.393Z,26.4
2019-04-21T13:19:45.804Z,26.6
2019-04-21T13:24:45.710Z,26.8
2019-04-21T13:29:46.257Z,26.7
2019-04-21T13:34:46.083Z,26.8
2019-04-21T13:40:09.641Z,27.2
2019-04-21T13:44:46.625Z,26.6
2019-04-21T13:49:45.533Z,26.7
2019-04-21T13:54:45.604Z,26.5
2019-04-21T13:59:46.691Z,26.4
2019-04-21T14:04:45.615Z,26.7
2019-04-21T14:09:54.543Z,26.7
2019-04-21T14:14:46.361Z,26.6
2019-04-21T14:19:45.664Z,26.6
2019-04-21T14:24:45.839Z,26.5
2019-04-21T14:29:45.944Z,26.4
2019-04-21T14:34:47.222Z,26.1
2019-04-21T14:39:53.878Z,26.4
2019-04-21T14:44:46.872Z,26
2019-04-21T14:49:45.366Z,26.4
2019-04-21T14:54:46.821Z,26.5
2019-04-21T14:59:46.782Z,25.9
2019-04-21T15:04:45.908Z,25.9
2019-04-21T15:09:46.407Z,25
2019-04-21T15:14:45.160Z,25.1
2019-04-21T15:19:53.983Z,24.7
2019-04-21T15:24:45.162Z,24.8
2019-04-21T15:29:46.743Z,25.1
2019-04-21T15:34:45.499Z,24.8
2019-04-21T15:39:46.795Z,24.5
2019-04-21T15:44:45.275Z,24.5
2019-04-21T15:49:53.883Z,24.3
2019-04-21T15:54:45.259Z,24.7
2019-04-21T15:59:46.421Z,24.1
2019-04-21T16:04:46.416Z,24.2
2019-04-21T16:09:46.061Z,24.5
2019-04-21T16:14:45.181Z,24.9
2019-04-21T16:19:45.912Z,24.1
2019-04-21T16:24:46.269Z,23.2
2019-04-21T16:29:45.727Z,23.2
2019-04-21T16:34:49.005Z,23
2019-04-21T16:39:45.419Z,22.9
2019-04-21T16:44:45.338Z,23.1
2019-04-21T16:49:45.557Z,22.9
2019-04-21T16:54:46.129Z,22.9
2019-04-21T16:59:46.513Z,23
2019-04-21T17:04:46.494Z,23
2019-04-21T17:09:46.394Z,22.9
2019-04-21T17:14:59.242Z,22.7
2019-04-21T17:19:47.636Z,22.8
2019-04-21T17:24:46.461Z,22.9
2019-04-21T17:29:46.240Z,22.6
2019-04-21T17:34:45.814Z,22.6
2019-04-21T17:39:45.066Z,22.6
2019-04-21T17:44:45.402Z,22.5
2019-04-21T17:49:45.043Z,22.2
2019-04-21T17:54:48.881Z,22.1
2019-04-21T18:05:08.587Z,22
2019-04-21T18:10:04.476Z,21.7
2019-04-21T18:14:57.888Z,21.5
2019-04-21T18:19:47.495Z,21.5
2019-04-21T18:24:54.204Z,21.4
2019-04-21T18:29:46.374Z,21.3
2019-04-21T18:34:47.837Z,21.1
2019-04-21T18:39:57.467Z,21.2
2019-04-21T18:45:22.210Z,21
2019-04-21T18:49:46.052Z,21
2019-04-21T18:54:58.269Z,20.6
2019-04-21T18:59:47.262Z,20.6
2019-04-21T19:04:46.427Z,20.6
2019-04-21T19:10:18.457Z,20.5
2019-04-21T19:15:02.574Z,20.4
2019-04-21T19:25:08.550Z,20.2
2019-04-21T19:30:05.682Z,20.3
2019-04-21T19:34:47.399Z,20.3
2019-04-21T19:39:53.931Z,20.3
2019-04-21T19:44:59.211Z,20.3
2019-04-21T19:49:55.168Z,20.3
2019-04-21T19:54:48.600Z,19.4
2019-04-21T19:59:48.577Z,19.3
2019-04-21T20:04:52.259Z,19.3
2019-04-21T20:09:56.780Z,19.1
2019-04-21T20:15:08.924Z,19.2
2019-04-21T20:19:45.054Z,19
2019-04-21T20:24:52.065Z,19
2019-04-21T20:30:02.344Z,18.9
2019-04-21T20:35:03.688Z,18.8
2019-04-21T20:39:53.400Z,18.7
2019-04-21T20:45:16.045Z,18.6
2019-04-21T20:49:59.790Z,18.7
2019-04-21T20:54:59.968Z,18.4
2019-04-21T21:04:49.836Z,18.4
2019-04-21T21:10:08.754Z,18.3
2019-04-21T21:14:57.974Z,18.5
2019-04-21T21:20:07.875Z,18.7
2019-04-21T21:24:59.630Z,18.5
2019-04-21T21:34:56.964Z,18
2019-04-21T21:40:04.057Z,18
2019-04-21T21:44:50.474Z,18.1
2019-04-21T21:49:57.821Z,17.9
2019-04-21T21:54:45.614Z,18
2019-04-21T21:59:45.392Z,18
2019-04-21T22:04:54.132Z,18
2019-04-21T22:09:46.210Z,17.9
2019-04-21T22:14:47.927Z,18
2019-04-21T22:20:05.259Z,17.9
2019-04-21T22:24:55.638Z,17.7
2019-04-21T22:29:49.795Z,17.4
2019-04-21T22:34:51.421Z,17
2019-04-21T22:39:59.617Z,16.8
2019-04-21T22:44:46.151Z,16.4
2019-04-21T22:49:44.652Z,16.5
2019-04-21T22:54:46.655Z,16.3
2019-04-21T22:59:51.893Z,16.1
2019-04-21T23:04:48.942Z,16
2019-04-21T23:09:45.477Z,15.9
2019-04-21T23:14:53.140Z,15.6
2019-04-21T23:20:05.635Z,15.8
2019-04-21T23:25:03.017Z,15.8
2019-04-21T23:30:08.007Z,15.8
2019-04-21T23:34:45.586Z,15.9
2019-04-21T23:39:45.496Z,15.8
2019-04-21T23:44:49.147Z,15.7
2019-04-21T23:49:53.123Z,15.6
2019-04-21T23:54:45.251Z,15.4
2019-04-21T23:59:48.776Z,15.5
